createdAt,value
2019-02-22T00:01:08.036Z,5.70
2019-02-22T00:03:39.668Z,5.40
2019-02-22T00:06:11.250Z,5.27
2019-02-22T00:08:42.735Z,3.80
2019-02-22T00:11:14.334Z,4.27
2019-02-22T00:13:45.828Z,4.50
2019-02-22T00:16:17.326Z,4.80
2019-02-22T00:18:48.829Z,3.50
2019-02-22T00:21:20.336Z,4.27
2019-02-22T00:23:51.818Z,3.33
2019-02-22T00:26:23.338Z,3.33
2019-02-22T00:28:54.973Z,3.87
2019-02-22T00:31:26.502Z,3.30
2019-02-22T00:33:58.071Z,2.43
2019-02-22T00:36:29.611Z,2.13
2019-02-22T00:39:01.085Z,1.80
2019-02-22T00:41:34.371Z,1.70
2019-02-22T00:44:05.916Z,2.37
2019-02-22T00:46:37.438Z,2.10
2019-02-22T00:49:08.929Z,2.10
2019-02-22T00:51:40.455Z,3.37
2019-02-22T00:54:12.029Z,3.73
2019-02-22T00:56:43.637Z,3.07
2019-02-22T00:59:15.273Z,2.30
2019-02-22T01:01:46.863Z,2.80
2019-02-22T01:04:18.467Z,1.87
2019-02-22T01:06:49.986Z,2.60
2019-02-22T01:09:21.565Z,2.50
2019-02-22T01:11:53.097Z,2.47
2019-02-22T01:14:24.687Z,3.43
2019-02-22T01:16:57.352Z,3.70
2019-02-22T01:19:29.057Z,3.10
2019-02-22T01:22:00.572Z,3.13
2019-02-22T01:24:32.147Z,3.43
2019-02-22T01:27:03.776Z,4.73
2019-02-22T01:29:35.280Z,3.47
2019-02-22T01:32:06.784Z,3.93
2019-02-22T01:34:38.360Z,4.00
2019-02-22T01:37:11.011Z,3.40
2019-02-22T01:39:42.522Z,3.33
2019-02-22T01:42:14.089Z,3.40
2019-02-22T01:44:45.579Z,3.87
2019-02-22T01:47:17.107Z,3.40
2019-02-22T01:49:49.697Z,3.27
2019-02-22T01:52:21.190Z,3.87
2019-02-22T01:54:52.686Z,3.17
2019-02-22T01:57:24.187Z,4.13
2019-02-22T01:59:55.844Z,3.27
2019-02-22T02:02:27.340Z,3.50
2019-02-22T02:04:58.850Z,3.00
2019-02-22T02:07:30.341Z,3.27
2019-02-22T02:10:01.998Z,3.23
2019-02-22T02:12:35.091Z,5.53
2019-02-22T02:15:07.087Z,5.23
2019-02-22T02:17:38.600Z,4.37
2019-02-22T02:20:10.170Z,3.43
2019-02-22T02:22:41.718Z,3.57
2019-02-22T02:25:13.217Z,2.90
2019-02-22T02:27:44.737Z,4.07
2019-02-22T02:30:16.330Z,3.60
2019-02-22T02:32:47.847Z,4.43
2019-02-22T02:35:19.434Z,3.30
2019-02-22T02:37:50.944Z,4.33
2019-02-22T02:40:22.504Z,3.73
2019-02-22T02:42:54.321Z,3.47
2019-02-22T02:45:26.894Z,4.00
2019-02-22T02:47:58.432Z,4.03
2019-02-22T02:50:29.939Z,4.10
2019-02-22T02:53:01.434Z,3.70
2019-02-22T02:55:35.386Z,5.70
2019-02-22T02:58:07.021Z,4.53
2019-02-22T03:00:38.733Z,5.07
2019-02-22T03:03:10.261Z,5.40
2019-02-22T03:05:44.271Z,5.00
2019-02-22T03:08:15.778Z,5.30
2019-02-22T03:10:47.276Z,4.90
2019-02-22T03:13:18.777Z,5.90
2019-02-22T03:15:50.330Z,5.40
2019-02-22T03:18:21.907Z,4.20
2019-02-22T03:20:53.486Z,4.63
2019-02-22T03:23:24.977Z,5.00
2019-02-22T03:25:56.467Z,5.90
2019-02-22T03:28:27.975Z,5.07
2019-02-22T03:30:59.496Z,5.67
2019-02-22T03:33:31.210Z,5.40
2019-02-22T03:36:02.783Z,5.63
2019-02-22T03:38:34.299Z,5.40
2019-02-22T03:41:05.791Z,5.20
2019-02-22T03:43:37.367Z,3.77
2019-02-22T03:46:08.941Z,4.83
2019-02-22T03:48:40.856Z,4.70
2019-02-22T03:51:12.355Z,4.70
2019-02-22T03:53:45.488Z,5.27
2019-02-22T03:56:18.268Z,4.13
2019-02-22T03:58:50.842Z,3.20
2019-02-22T04:01:24.622Z,4.20
2019-02-22T04:03:56.119Z,4.60
2019-02-22T04:06:27.679Z,4.40
2019-02-22T04:08:59.169Z,4.70
2019-02-22T04:11:30.743Z,4.23
2019-02-22T04:14:02.276Z,4.43
2019-02-22T04:16:33.925Z,4.27
2019-02-22T04:19:05.444Z,4.73
2019-02-22T04:21:37.014Z,3.97
2019-02-22T04:24:08.598Z,3.30
2019-02-22T04:26:40.079Z,3.10
2019-02-22T04:29:11.581Z,4.30
2019-02-22T04:31:43.090Z,4.10
2019-02-22T04:34:14.664Z,3.40
2019-02-22T04:36:46.188Z,3.73
2019-02-22T04:39:17.681Z,4.10
2019-02-22T04:41:57.677Z,3.83
2019-02-22T04:44:22.434Z,2.47
2019-02-22T04:46:53.936Z,3.93
2019-02-22T04:49:25.477Z,4.60
2019-02-22T04:51:57.135Z,4.23
2019-02-22T04:54:28.631Z,4.27
2019-02-22T04:57:00.137Z,4.03
2019-02-22T04:59:31.653Z,3.90
2019-02-22T05:02:03.214Z,3.97
2019-02-22T05:04:34.700Z,5.33
2019-02-22T05:07:06.200Z,4.27
2019-02-22T05:09:37.713Z,4.93
2019-02-22T05:12:11.149Z,4.40
2019-02-22T05:14:42.450Z,4.53
2019-02-22T05:17:14.006Z,5.07
2019-02-22T05:19:45.606Z,5.13
2019-02-22T05:22:17.109Z,4.30
2019-02-22T05:24:48.631Z,4.30
2019-02-22T05:27:20.340Z,4.73
2019-02-22T05:29:51.851Z,4.20
2019-02-22T05:32:23.371Z,4.00
2019-02-22T05:34:54.868Z,3.80
2019-02-22T05:37:26.365Z,3.87
2019-02-22T05:39:57.874Z,3.87
2019-02-22T05:42:29.390Z,3.77
2019-02-22T05:45:00.954Z,3.33
2019-02-22T05:47:32.451Z,4.30
2019-02-22T05:50:04.318Z,4.10
2019-02-22T05:52:35.839Z,3.40
2019-02-22T05:55:07.508Z,3.30
2019-02-22T05:57:39.021Z,3.83
2019-02-22T06:00:11.565Z,3.50
2019-02-22T06:02:43.134Z,4.50
2019-02-22T06:05:14.646Z,3.93
2019-02-22T06:07:46.202Z,3.23
2019-02-22T06:10:17.710Z,3.90
2019-02-22T06:12:49.246Z,3.77
2019-02-22T06:15:20.829Z,3.20
2019-02-22T06:17:52.439Z,3.90
2019-02-22T06:20:23.924Z,3.50
2019-02-22T06:22:56.460Z,2.83
2019-02-22T06:25:28.043Z,3.40
2019-02-22T06:27:59.595Z,2.83
2019-02-22T06:30:31.185Z,3.60
2019-02-22T06:33:03.681Z,3.77
2019-02-22T06:35:36.247Z,3.10
2019-02-22T06:38:07.750Z,2.63
2019-02-22T06:40:39.238Z,4.07
2019-02-22T06:43:10.733Z,3.60
2019-02-22T06:45:43.325Z,3.27
2019-02-22T06:48:15.902Z,3.57
2019-02-22T06:50:47.403Z,3.80
2019-02-22T06:53:19.981Z,3.97
2019-02-22T06:55:51.483Z,3.73
2019-02-22T06:58:22.999Z,3.90
2019-02-22T07:00:54.505Z,4.07
2019-02-22T07:03:25.985Z,3.57
2019-02-22T07:05:57.535Z,2.83
2019-02-22T07:08:29.066Z,2.67
2019-02-22T07:11:03.195Z,2.90
2019-02-22T07:13:34.755Z,3.63
2019-02-22T07:16:06.338Z,3.80
2019-02-22T07:18:37.917Z,3.33
2019-02-22T07:21:09.427Z,3.40
2019-02-22T07:23:40.948Z,3.00
2019-02-22T07:26:12.428Z,2.70
2019-02-22T07:28:43.916Z,3.90
2019-02-22T07:31:15.426Z,2.70
2019-02-22T07:33:47.112Z,2.77
2019-02-22T07:36:18.731Z,2.83
2019-02-22T07:38:50.359Z,2.73
2019-02-22T07:41:21.914Z,2.67
2019-02-22T07:43:53.411Z,2.97
2019-02-22T07:46:24.899Z,2.30
2019-02-22T07:48:56.402Z,2.77
2019-02-22T07:51:28.887Z,1.87
2019-02-22T07:54:00.401Z,3.20
2019-02-22T07:56:31.894Z,2.30
2019-02-22T07:59:03.397Z,2.40
2019-02-22T08:01:46.558Z,2.63
2019-02-22T08:04:08.139Z,2.67
2019-02-22T08:06:42.354Z,2.60
2019-02-22T08:09:12.870Z,2.23
2019-02-22T08:11:46.684Z,2.27
2019-02-22T08:14:17.648Z,2.73
2019-02-22T08:16:49.191Z,2.80
2019-02-22T08:19:20.681Z,3.20
2019-02-22T08:21:52.201Z,3.10
2019-02-22T08:24:25.863Z,2.13
2019-02-22T08:26:56.895Z,2.93
2019-02-22T08:29:28.413Z,2.50
2019-02-22T08:31:59.976Z,2.80
2019-02-22T08:34:31.483Z,2.17
2019-02-22T08:37:03.003Z,3.10
2019-02-22T08:39:34.522Z,4.27
2019-02-22T08:42:06.011Z,3.37
2019-02-22T08:44:37.505Z,2.70
2019-02-22T08:47:09.086Z,2.53
2019-02-22T08:49:40.615Z,3.80
2019-02-22T08:52:12.122Z,2.43
2019-02-22T08:54:46.958Z,2.20
2019-02-22T08:57:16.985Z,2.73
2019-02-22T08:59:48.478Z,2.93
2019-02-22T09:02:20.088Z,3.07
2019-02-22T09:04:51.743Z,3.13
2019-02-22T09:07:23.278Z,2.90
2019-02-22T09:09:54.858Z,2.70
2019-02-22T09:12:26.443Z,2.70
2019-02-22T09:14:58.043Z,2.80
2019-02-22T09:17:30.626Z,3.20
2019-02-22T09:20:02.167Z,2.20
2019-02-22T09:22:35.260Z,2.63
2019-02-22T09:25:07.365Z,2.43
2019-02-22T09:27:38.881Z,2.40
2019-02-22T09:30:12.327Z,2.27
2019-02-22T09:32:43.893Z,2.30
2019-02-22T09:35:15.380Z,3.03
2019-02-22T09:37:46.891Z,2.13
2019-02-22T09:40:19.539Z,1.70
2019-02-22T09:42:51.153Z,2.70
2019-02-22T09:45:24.479Z,2.40
2019-02-22T09:47:55.849Z,1.80
2019-02-22T09:50:27.396Z,3.40
2019-02-22T09:52:58.884Z,3.30
2019-02-22T09:55:30.521Z,2.90
2019-02-22T09:58:02.038Z,3.30
2019-02-22T10:00:33.619Z,2.27
2019-02-22T10:03:05.105Z,2.93
2019-02-22T10:05:36.687Z,2.70
2019-02-22T10:08:08.186Z,2.53
2019-02-22T10:10:39.691Z,2.10
2019-02-22T10:13:11.177Z,2.40
2019-02-22T10:15:42.679Z,2.50
2019-02-22T10:18:14.250Z,2.20
2019-02-22T10:20:45.826Z,2.83
2019-02-22T10:23:17.413Z,3.87
2019-02-22T10:25:48.917Z,2.90
2019-02-22T10:28:20.500Z,2.50
2019-02-22T10:30:53.670Z,2.53
2019-02-22T10:33:35.943Z,3.10
2019-02-22T10:35:58.449Z,2.73
2019-02-22T10:38:32.927Z,2.90
2019-02-22T10:41:03.218Z,2.33
2019-02-22T10:43:34.710Z,1.97
2019-02-22T10:46:07.293Z,2.40
2019-02-22T10:48:38.859Z,2.73
2019-02-22T10:51:10.368Z,2.50
2019-02-22T10:53:41.946Z,2.50
2019-02-22T10:56:13.486Z,2.13
2019-02-22T10:58:45.052Z,2.10
2019-02-22T11:01:16.539Z,2.43
2019-02-22T11:03:48.042Z,2.00
2019-02-22T11:06:19.614Z,2.13
2019-02-22T11:08:51.610Z,1.73
2019-02-22T11:11:23.099Z,2.23
2019-02-22T11:13:54.664Z,0.87
2019-02-22T11:16:26.162Z,1.90
2019-02-22T11:18:57.696Z,1.77
2019-02-22T11:21:29.242Z,1.73
2019-02-22T11:24:00.852Z,1.13
2019-02-22T11:26:32.394Z,2.13
2019-02-22T11:29:04.034Z,2.07
2019-02-22T11:31:35.765Z,2.00
2019-02-22T11:34:07.271Z,2.20
2019-02-22T11:36:38.868Z,1.63
2019-02-22T11:39:10.400Z,2.27
2019-02-22T11:41:41.956Z,2.23
2019-02-22T11:44:13.462Z,2.03
2019-02-22T11:46:44.979Z,2.03
2019-02-22T11:49:16.509Z,2.33
2019-02-22T11:51:48.067Z,2.20
2019-02-22T11:54:19.674Z,2.60
2019-02-22T11:56:52.252Z,2.23
2019-02-22T11:59:23.755Z,2.33
2019-02-22T12:01:55.401Z,2.47
2019-02-22T12:04:26.906Z,2.50
2019-02-22T12:06:58.414Z,2.10
2019-02-22T12:09:29.922Z,1.77
2019-02-22T12:12:01.399Z,1.97
2019-02-22T12:14:32.966Z,2.10
2019-02-22T12:17:05.547Z,1.80
2019-02-22T12:19:37.199Z,2.80
2019-02-22T12:22:08.694Z,2.10
2019-02-22T12:24:41.151Z,2.93
2019-02-22T12:27:14.209Z,2.23
2019-02-22T12:29:45.997Z,3.17
2019-02-22T12:32:17.517Z,4.23
2019-02-22T12:34:49.126Z,2.30
2019-02-22T12:37:20.609Z,2.80
2019-02-22T12:39:52.113Z,2.30
2019-02-22T12:42:23.624Z,1.87
2019-02-22T12:45:02.488Z,2.07
2019-02-22T12:47:28.384Z,2.70
2019-02-22T12:49:59.890Z,1.20
2019-02-22T12:52:31.394Z,2.07
2019-02-22T12:55:02.898Z,0.90
2019-02-22T12:57:34.550Z,1.93
2019-02-22T13:00:16.290Z,1.87
2019-02-22T13:02:48.131Z,1.73
2019-02-22T13:05:26.812Z,1.63
2019-02-22T13:07:58.304Z,1.50
2019-02-22T13:10:29.985Z,1.80
2019-02-22T13:13:01.481Z,2.10
2019-02-22T13:15:33.053Z,2.10
2019-02-22T13:18:04.656Z,1.83
2019-02-22T13:20:36.150Z,2.40
2019-02-22T13:23:07.746Z,2.40
2019-02-22T13:25:39.265Z,2.23
2019-02-22T13:28:10.858Z,2.00
2019-02-22T13:30:42.430Z,2.20
2019-02-22T13:33:13.942Z,1.83
2019-02-22T13:35:45.576Z,1.97
2019-02-22T13:38:17.095Z,1.93
2019-02-22T13:40:49.863Z,1.80
2019-02-22T13:43:21.494Z,2.07
2019-02-22T13:45:53.056Z,2.07
2019-02-22T13:48:24.562Z,2.53
2019-02-22T13:50:56.117Z,3.93
2019-02-22T13:53:27.778Z,2.93
2019-02-22T13:55:59.331Z,2.47
2019-02-22T13:58:30.838Z,1.90
2019-02-22T14:01:02.475Z,4.67
2019-02-22T14:03:34.056Z,2.73
2019-02-22T14:06:05.579Z,3.37
2019-02-22T14:08:37.085Z,3.30
2019-02-22T14:11:08.597Z,3.37
2019-02-22T14:13:40.103Z,2.47
2019-02-22T14:16:11.603Z,2.00
2019-02-22T14:18:43.124Z,3.73
2019-02-22T14:21:14.656Z,3.47
2019-02-22T14:23:46.151Z,2.67
2019-02-22T14:26:17.684Z,3.00
2019-02-22T14:28:49.262Z,3.20
2019-02-22T14:31:20.840Z,2.17
2019-02-22T14:33:52.431Z,2.60
2019-02-22T14:36:24.041Z,2.50
2019-02-22T14:38:55.599Z,5.70
2019-02-22T14:41:28.023Z,3.87
2019-02-22T14:43:59.639Z,2.60
2019-02-22T14:46:31.139Z,4.97
2019-02-22T14:49:02.667Z,4.30
2019-02-22T14:51:34.182Z,5.63
2019-02-22T14:54:05.742Z,3.17
2019-02-22T14:56:37.284Z,2.40
2019-02-22T14:59:08.899Z,2.73
2019-02-22T15:01:40.543Z,2.60
2019-02-22T15:04:12.042Z,2.70
2019-02-22T15:06:43.689Z,3.43
2019-02-22T15:09:15.313Z,2.40
2019-02-22T15:11:46.832Z,2.80
2019-02-22T15:14:18.357Z,2.50
2019-02-22T15:16:49.622Z,2.00
2019-02-22T15:19:22.239Z,2.20
2019-02-22T15:21:53.942Z,2.17
2019-02-22T15:24:37.480Z,2.77
2019-02-22T15:27:09.012Z,1.83
2019-02-22T15:29:41.029Z,3.00
2019-02-22T15:32:12.602Z,3.40
2019-02-22T15:34:45.783Z,2.07
2019-02-22T15:37:17.368Z,2.47
2019-02-22T15:39:48.956Z,2.47
2019-02-22T15:42:20.537Z,3.53
2019-02-22T15:44:52.115Z,3.03
2019-02-22T15:47:24.830Z,2.87
2019-02-22T15:49:56.358Z,3.10
2019-02-22T15:52:27.875Z,2.87
2019-02-22T15:54:59.464Z,2.90
2019-02-22T15:57:31.051Z,3.40
2019-02-22T16:00:02.637Z,3.20
2019-02-22T16:02:35.939Z,2.80
2019-02-22T16:05:10.589Z,3.50
2019-02-22T16:07:44.915Z,2.50
2019-02-22T16:10:15.844Z,2.60
2019-02-22T16:12:48.009Z,3.23
2019-02-22T16:15:20.251Z,3.37
2019-02-22T16:17:53.139Z,3.70
2019-02-22T16:20:24.650Z,2.63
2019-02-22T16:22:56.176Z,3.20
2019-02-22T16:25:27.745Z,3.07
2019-02-22T16:27:59.281Z,3.17
2019-02-22T16:30:32.388Z,2.67
2019-02-22T16:33:04.157Z,3.33
2019-02-22T16:35:35.671Z,3.30
2019-02-22T16:38:07.187Z,3.50
2019-02-22T16:40:38.691Z,2.83
2019-02-22T16:43:10.333Z,3.40
2019-02-22T16:45:41.855Z,3.80
2019-02-22T16:48:13.384Z,3.10
2019-02-22T16:50:44.904Z,2.90
2019-02-22T16:53:16.707Z,3.17
2019-02-22T16:55:48.243Z,2.83
2019-02-22T16:58:19.757Z,3.60
2019-02-22T17:00:51.444Z,3.77
2019-02-22T17:03:23.167Z,3.93
2019-02-22T17:05:54.762Z,3.60
2019-02-22T17:08:26.364Z,4.33
2019-02-22T17:10:58.007Z,4.27
2019-02-22T17:13:29.731Z,4.97
2019-02-22T17:16:01.329Z,4.73
2019-02-22T17:18:32.965Z,4.97
2019-02-22T17:21:04.937Z,4.73
2019-02-22T17:23:36.472Z,4.47
2019-02-22T17:26:11.920Z,4.97
2019-02-22T17:28:43.623Z,6.23
2019-02-22T17:31:15.382Z,6.10
2019-02-22T17:33:47.283Z,5.03
2019-02-22T17:36:26.487Z,6.43
2019-02-22T17:38:52.356Z,4.60
2019-02-22T17:41:23.938Z,6.47
2019-02-22T17:43:55.547Z,5.73
2019-02-22T17:46:27.072Z,4.40
2019-02-22T17:48:58.599Z,6.13
2019-02-22T17:51:30.172Z,5.27
2019-02-22T17:54:01.817Z,5.50
2019-02-22T17:56:33.513Z,6.00
2019-02-22T17:59:05.161Z,5.97
2019-02-22T18:01:36.713Z,6.30
2019-02-22T18:04:09.537Z,5.10
2019-02-22T18:06:41.300Z,5.17
2019-02-22T18:09:12.903Z,5.80
2019-02-22T18:11:44.792Z,5.93
2019-02-22T18:14:16.405Z,4.83
2019-02-22T18:16:48.066Z,5.93
2019-02-22T18:19:19.729Z,6.67
2019-02-22T18:21:51.317Z,6.37
2019-02-22T18:24:23.028Z,6.87
2019-02-22T18:26:54.747Z,7.80
2019-02-22T18:29:35.189Z,6.60
2019-02-22T18:32:00.393Z,6.33
2019-02-22T18:34:31.921Z,7.07
2019-02-22T18:37:03.566Z,7.97
2019-02-22T18:39:35.301Z,7.20
2019-02-22T18:42:06.840Z,5.93
2019-02-22T18:44:38.500Z,6.60
2019-02-22T18:47:19.012Z,5.27
2019-02-22T18:49:43.381Z,6.73
2019-02-22T18:52:14.916Z,5.50
2019-02-22T18:54:46.458Z,5.77
2019-02-22T18:57:18.055Z,5.90
2019-02-22T18:59:49.678Z,6.60
2019-02-22T19:02:21.242Z,4.97
2019-02-22T19:04:52.891Z,5.70
2019-02-22T19:07:24.465Z,6.67
2019-02-22T19:09:56.052Z,9.07
2019-02-22T19:12:27.758Z,10.03
2019-02-22T19:14:59.470Z,8.27
2019-02-22T19:17:31.888Z,8.20
2019-02-22T19:20:03.496Z,6.60
2019-02-22T19:22:35.154Z,7.20
2019-02-22T19:25:09.023Z,8.53
2019-02-22T19:27:40.535Z,8.00
2019-02-22T19:30:17.929Z,8.77
2019-02-22T19:32:49.433Z,7.53
2019-02-22T19:35:20.957Z,9.00
2019-02-22T19:37:52.632Z,8.60
2019-02-22T19:40:27.209Z,9.93
2019-02-22T19:42:58.922Z,10.30
2019-02-22T19:45:31.465Z,9.80
2019-02-22T19:48:03.063Z,14.00
2019-02-22T19:50:41.339Z,12.80
2019-02-22T19:53:08.192Z,12.27
2019-02-22T19:55:39.796Z,13.13
2019-02-22T19:58:11.337Z,15.63
2019-02-22T20:00:42.933Z,13.80
2019-02-22T20:03:14.592Z,16.10
2019-02-22T20:05:46.226Z,12.63
2019-02-22T20:08:17.944Z,13.07
2019-02-22T20:10:49.518Z,15.53
2019-02-22T20:13:21.109Z,11.33
2019-02-22T20:15:52.764Z,11.77
2019-02-22T20:18:24.510Z,12.13
2019-02-22T20:20:56.202Z,14.10
2019-02-22T20:23:27.845Z,13.80
2019-02-22T20:25:59.897Z,13.60
2019-02-22T20:28:31.700Z,13.57
2019-02-22T20:31:03.322Z,11.27
2019-02-22T20:33:34.894Z,11.83
2019-02-22T20:36:06.427Z,12.37
2019-02-22T20:38:38.247Z,13.60
2019-02-22T20:41:10.029Z,12.67
2019-02-22T20:43:41.674Z,14.60
2019-02-22T20:46:14.106Z,15.07
2019-02-22T20:48:45.705Z,12.77
2019-02-22T20:51:18.423Z,13.67
2019-02-22T20:53:50.048Z,11.83
2019-02-22T20:56:21.728Z,12.30
2019-02-22T20:58:53.335Z,11.47
2019-02-22T21:01:24.944Z,10.77
2019-02-22T21:03:59.201Z,9.83
2019-02-22T21:06:31.181Z,9.20
2019-02-22T21:09:02.942Z,11.57
2019-02-22T21:11:36.155Z,12.07
2019-02-22T21:14:07.690Z,16.67
2019-02-22T21:16:39.235Z,22.07
2019-02-22T21:19:10.846Z,23.90
2019-02-22T21:21:42.420Z,20.97
2019-02-22T21:24:13.936Z,30.80
2019-02-22T21:26:45.514Z,16.70
2019-02-22T21:29:17.544Z,12.90
2019-02-22T21:31:49.240Z,14.57
2019-02-22T21:34:20.866Z,11.20
2019-02-22T21:36:52.407Z,12.00
2019-02-22T21:39:24.142Z,12.03
2019-02-22T21:41:55.737Z,13.17
2019-02-22T21:44:27.409Z,12.23
2019-02-22T21:46:58.953Z,13.93
2019-02-22T21:49:30.689Z,19.27
2019-02-22T21:52:02.576Z,20.00
2019-02-22T21:54:34.177Z,22.57
2019-02-22T21:57:05.861Z,18.53
2019-02-22T21:59:37.421Z,20.03
2019-02-22T22:02:09.057Z,16.63
2019-02-22T22:04:40.592Z,12.60
2019-02-22T22:07:12.238Z,14.13
2019-02-22T22:09:44.363Z,12.97
2019-02-22T22:12:15.901Z,15.47
2019-02-22T22:14:48.452Z,13.20
2019-02-22T22:17:20.021Z,12.77
2019-02-22T22:19:51.697Z,12.63
2019-02-22T22:22:23.476Z,12.00
2019-02-22T22:24:55.162Z,13.17
2019-02-22T22:27:26.799Z,13.30
2019-02-22T22:29:58.356Z,13.13
2019-02-22T22:32:29.998Z,14.53
2019-02-22T22:35:01.829Z,10.93
2019-02-22T22:37:33.497Z,13.10
2019-02-22T22:40:05.122Z,13.33
2019-02-22T22:42:36.799Z,14.10
2019-02-22T22:45:16.240Z,13.17
2019-02-22T22:47:47.923Z,13.53
2019-02-22T22:50:19.583Z,14.90
2019-02-22T22:52:51.191Z,13.33
2019-02-22T22:55:22.868Z,13.40
2019-02-22T22:57:54.569Z,13.50
2019-02-22T23:00:51.705Z,14.33
2019-02-22T23:03:24.713Z,12.07
2019-02-22T23:05:56.316Z,11.60
2019-02-22T23:08:27.922Z,12.97
2019-02-22T23:10:59.500Z,16.60
2019-02-22T23:13:31.380Z,15.43
2019-02-22T23:16:03.057Z,15.03
2019-02-22T23:18:34.669Z,14.30
2019-02-22T23:21:06.327Z,14.33
2019-02-22T23:23:37.868Z,14.00
2019-02-22T23:26:09.466Z,13.00
2019-02-22T23:28:41.086Z,13.13
2019-02-22T23:31:12.774Z,13.47
2019-02-22T23:33:44.442Z,14.73
2019-02-22T23:36:15.993Z,14.90
2019-02-22T23:38:47.520Z,14.83
2019-02-22T23:41:20.185Z,16.03
2019-02-22T23:43:51.793Z,19.60
2019-02-22T23:46:23.430Z,17.07
2019-02-22T23:48:55.034Z,18.37
2019-02-22T23:51:26.697Z,16.80
2019-02-22T23:53:58.299Z,19.13
2019-02-22T23:56:30.037Z,18.90
2019-02-22T23:59:02.076Z,18.23
